createdAt,value
2023-04-11T00:00:00.415Z,8.34
2023-04-11T00:01:00.410Z,8.34
2023-04-11T00:02:00.514Z,8.34
2023-04-11T00:03:00.729Z,8.34
2023-04-11T00:04:00.989Z,8.34
2023-04-11T00:05:00.555Z,8.27
2023-04-11T00:06:00.409Z,8.27
2023-04-11T00:07:00.421Z,8.27
2023-04-11T00:08:00.498Z,8.27
2023-04-11T00:09:00.451Z,8.27
2023-04-11T00:10:00.420Z,8.31
2023-04-11T00:11:00.499Z,8.31
2023-04-11T00:12:00.619Z,8.31
2023-04-11T00:13:00.418Z,8.31
2023-04-11T00:14:00.412Z,8.31
2023-04-11T00:15:00.448Z,8.28
2023-04-11T00:16:00.436Z,8.28
2023-04-11T00:17:00.404Z,8.28
2023-04-11T00:18:00.578Z,8.28
2023-04-11T00:19:00.613Z,8.28
2023-04-11T00:20:00.428Z,8.33
2023-04-11T00:21:00.630Z,8.33
2023-04-11T00:22:00.419Z,8.33
2023-04-11T00:23:00.438Z,8.33
2023-04-11T00:24:00.461Z,8.33
2023-04-11T00:25:00.423Z,8.31
2023-04-11T00:26:00.694Z,8.31
2023-04-11T00:27:00.737Z,8.31
2023-04-11T00:28:00.394Z,8.31
2023-04-11T00:29:00.488Z,8.31
2023-04-11T00:30:00.489Z,8.33
2023-04-11T00:31:00.725Z,8.33
2023-04-11T00:32:00.421Z,8.33
2023-04-11T00:33:00.469Z,8.33
2023-04-11T00:34:00.394Z,8.33
2023-04-11T00:35:00.459Z,8.32
2023-04-11T00:36:00.488Z,8.32
2023-04-11T00:37:00.433Z,8.32
2023-04-11T00:38:00.403Z,8.32
2023-04-11T00:39:00.405Z,8.32
2023-04-11T00:40:00.752Z,8.38
2023-04-11T00:41:00.523Z,8.38
2023-04-11T00:42:04.404Z,8.38
2023-04-11T00:43:00.406Z,8.38
2023-04-11T00:44:00.419Z,8.38
2023-04-11T00:45:00.486Z,8.33
2023-04-11T00:46:00.512Z,8.33
2023-04-11T00:47:01.749Z,8.33
2023-04-11T00:48:00.554Z,8.33
2023-04-11T00:49:00.515Z,8.33
2023-04-11T00:50:00.739Z,8.33
2023-04-11T00:51:00.707Z,8.33
2023-04-11T00:52:00.837Z,8.33
2023-04-11T00:53:00.440Z,8.33
2023-04-11T00:54:00.490Z,8.33
2023-04-11T00:55:01.989Z,8.29
2023-04-11T00:56:00.417Z,8.29
2023-04-11T00:57:01.321Z,8.29
2023-04-11T00:58:00.611Z,8.29
2023-04-11T00:59:00.431Z,8.29
2023-04-11T01:00:00.690Z,8.29
2023-04-11T01:01:00.408Z,8.29
2023-04-11T01:02:00.626Z,8.29
2023-04-11T01:03:01.088Z,8.29
2023-04-11T01:04:01.120Z,8.29
2023-04-11T01:05:00.401Z,8.29
2023-04-11T01:06:00.450Z,8.29
2023-04-11T01:07:03.221Z,8.29
2023-04-11T01:08:01.459Z,8.29
2023-04-11T01:09:00.756Z,8.29
2023-04-11T01:10:01.190Z,8.23
2023-04-11T01:11:01.327Z,8.23
2023-04-11T01:12:01.059Z,8.23
2023-04-11T01:13:00.481Z,8.23
2023-04-11T01:14:00.710Z,8.23
2023-04-11T01:15:00.688Z,8.24
2023-04-11T01:16:00.977Z,8.24
2023-04-11T01:17:00.832Z,8.24
2023-04-11T01:18:00.808Z,8.24
2023-04-11T01:19:00.473Z,8.24
2023-04-11T01:20:00.748Z,8.21
2023-04-11T01:21:00.452Z,8.21
2023-04-11T01:22:00.613Z,8.21
2023-04-11T01:23:01.050Z,8.21
2023-04-11T01:24:00.622Z,8.21
2023-04-11T01:25:00.481Z,8.15
2023-04-11T01:26:00.405Z,8.15
2023-04-11T01:27:01.316Z,8.15
2023-04-11T01:28:00.430Z,8.15
2023-04-11T01:29:01.108Z,8.15
2023-04-11T01:30:00.424Z,8.15
2023-04-11T01:31:00.447Z,8.15
2023-04-11T01:32:00.516Z,8.15
2023-04-11T01:33:00.462Z,8.15
2023-04-11T01:34:01.332Z,8.15
2023-04-11T01:35:02.955Z,8.14
2023-04-11T01:36:00.493Z,8.14
2023-04-11T01:37:00.622Z,8.14
2023-04-11T01:38:00.442Z,8.14
2023-04-11T01:39:00.487Z,8.14
2023-04-11T01:40:00.673Z,8.13
2023-04-11T01:41:01.299Z,8.13
2023-04-11T01:42:00.726Z,8.13
2023-04-11T01:43:00.712Z,8.13
2023-04-11T01:44:02.201Z,8.13
2023-04-11T01:45:01.020Z,8.07
2023-04-11T01:46:00.705Z,8.07
2023-04-11T01:47:00.709Z,8.07
2023-04-11T01:48:04.698Z,8.07
2023-04-11T01:49:00.482Z,8.07
2023-04-11T01:50:00.500Z,8.05
2023-04-11T01:51:00.412Z,8.05
2023-04-11T01:52:00.421Z,8.05
2023-04-11T01:53:00.452Z,8.05
2023-04-11T01:54:00.495Z,8.05
2023-04-11T01:55:00.409Z,7.97
2023-04-11T01:56:00.452Z,7.97
2023-04-11T01:57:00.402Z,7.97
2023-04-11T01:58:00.416Z,7.97
2023-04-11T01:59:00.416Z,7.97
2023-04-11T02:00:00.394Z,8.00
2023-04-11T02:01:00.449Z,8.00
2023-04-11T02:02:00.484Z,8.00
2023-04-11T02:03:00.480Z,8.00
2023-04-11T02:04:00.612Z,8.00
2023-04-11T02:05:00.425Z,7.96
2023-04-11T02:06:00.407Z,7.96
2023-04-11T02:07:00.422Z,7.96
2023-04-11T02:08:00.394Z,7.96
2023-04-11T02:09:00.397Z,7.96
2023-04-11T02:10:00.419Z,7.89
2023-04-11T02:11:00.396Z,7.89
2023-04-11T02:12:00.406Z,7.89
2023-04-11T02:13:00.387Z,7.89
2023-04-11T02:14:00.994Z,7.89
2023-04-11T02:15:00.495Z,7.90
2023-04-11T02:16:05.097Z,7.90
2023-04-11T02:17:00.409Z,7.90
2023-04-11T02:18:00.591Z,7.90
2023-04-11T02:19:00.427Z,7.90
2023-04-11T02:20:00.431Z,7.85
2023-04-11T02:21:00.398Z,7.85
2023-04-11T02:22:00.686Z,7.85
2023-04-11T02:23:00.397Z,7.85
2023-04-11T02:24:00.920Z,7.85
2023-04-11T02:25:00.423Z,7.84
2023-04-11T02:26:00.746Z,7.84
2023-04-11T02:27:00.689Z,7.84
2023-04-11T02:28:00.409Z,7.84
2023-04-11T02:29:00.409Z,7.84
2023-04-11T02:30:00.451Z,7.79
2023-04-11T02:31:01.108Z,7.79
2023-04-11T02:32:00.556Z,7.79
2023-04-11T02:33:00.420Z,7.79
2023-04-11T02:34:00.707Z,7.79
2023-04-11T02:35:00.753Z,7.79
2023-04-11T02:36:00.442Z,7.79
2023-04-11T02:37:00.445Z,7.79
2023-04-11T02:38:00.427Z,7.79
2023-04-11T02:39:00.455Z,7.79
2023-04-11T02:40:01.089Z,7.78
2023-04-11T02:41:00.393Z,7.78
2023-04-11T02:42:00.436Z,7.78
2023-04-11T02:43:00.425Z,7.78
2023-04-11T02:44:00.398Z,7.78
2023-04-11T02:45:00.446Z,7.70
2023-04-11T02:46:11.566Z,7.70
2023-04-11T02:47:00.543Z,7.70
2023-04-11T02:48:00.464Z,7.70
2023-04-11T02:49:00.410Z,7.70
2023-04-11T02:50:00.408Z,7.69
2023-04-11T02:51:00.417Z,7.69
2023-04-11T02:52:00.395Z,7.69
2023-04-11T02:53:00.411Z,7.69
2023-04-11T02:54:00.409Z,7.69
2023-04-11T02:55:00.394Z,7.71
2023-04-11T02:56:00.411Z,7.71
2023-04-11T02:57:00.413Z,7.71
2023-04-11T02:58:00.400Z,7.71
2023-04-11T02:59:00.425Z,7.71
2023-04-11T03:00:00.661Z,7.68
2023-04-11T03:01:00.428Z,7.68
2023-04-11T03:02:00.964Z,7.68
2023-04-11T03:03:00.468Z,7.68
2023-04-11T03:04:00.528Z,7.68
2023-04-11T03:05:00.432Z,7.64
2023-04-11T03:06:00.397Z,7.64
2023-04-11T03:07:00.400Z,7.64
2023-04-11T03:08:00.407Z,7.64
2023-04-11T03:09:00.432Z,7.64
2023-04-11T03:10:00.387Z,7.64
2023-04-11T03:11:00.806Z,7.64
2023-04-11T03:12:00.405Z,7.64
2023-04-11T03:13:00.414Z,7.64
2023-04-11T03:14:00.472Z,7.64
2023-04-11T03:15:00.514Z,7.58
2023-04-11T03:16:00.476Z,7.58
2023-04-11T03:17:00.413Z,7.58
2023-04-11T03:18:00.546Z,7.58
2023-04-11T03:19:00.519Z,7.58
2023-04-11T03:20:00.409Z,7.54
2023-04-11T03:21:00.463Z,7.54
2023-04-11T03:22:00.437Z,7.54
2023-04-11T03:23:00.404Z,7.54
2023-04-11T03:24:00.402Z,7.54
2023-04-11T03:25:00.407Z,7.50
2023-04-11T03:26:00.417Z,7.50
2023-04-11T03:27:00.401Z,7.50
2023-04-11T03:28:00.446Z,7.50
2023-04-11T03:29:00.412Z,7.50
2023-04-11T03:30:00.462Z,7.50
2023-04-11T03:31:00.559Z,7.50
2023-04-11T03:32:00.411Z,7.50
2023-04-11T03:33:00.515Z,7.50
2023-04-11T03:34:00.452Z,7.50
2023-04-11T03:35:00.566Z,7.47
2023-04-11T03:36:00.460Z,7.47
2023-04-11T03:37:00.404Z,7.47
2023-04-11T03:38:00.403Z,7.47
2023-04-11T03:39:00.401Z,7.47
2023-04-11T03:40:00.416Z,7.43
2023-04-11T03:41:00.491Z,7.43
2023-04-11T03:42:00.435Z,7.43
2023-04-11T03:43:01.784Z,7.43
2023-04-11T03:44:00.412Z,7.43
2023-04-11T03:45:00.443Z,7.43
2023-04-11T03:46:00.450Z,7.43
2023-04-11T03:47:00.477Z,7.43
2023-04-11T03:48:00.476Z,7.43
2023-04-11T03:49:00.434Z,7.43
2023-04-11T03:50:00.421Z,7.40
2023-04-11T03:51:00.428Z,7.40
2023-04-11T03:52:00.482Z,7.40
2023-04-11T03:53:00.421Z,7.40
2023-04-11T03:54:00.420Z,7.40
2023-04-11T03:55:00.509Z,7.39
2023-04-11T03:56:00.412Z,7.39
2023-04-11T03:57:00.413Z,7.39
2023-04-11T03:58:00.395Z,7.39
2023-04-11T03:59:00.413Z,7.39
2023-04-11T04:00:00.693Z,7.38
2023-04-11T04:01:00.433Z,7.38
2023-04-11T04:02:00.544Z,7.38
2023-04-11T04:03:00.568Z,7.38
2023-04-11T04:04:00.947Z,7.38
2023-04-11T04:05:00.454Z,7.38
2023-04-11T04:06:00.451Z,7.38
2023-04-11T04:07:00.405Z,7.38
2023-04-11T04:08:00.435Z,7.38
2023-04-11T04:09:00.450Z,7.38
2023-04-11T04:10:00.490Z,7.35
2023-04-11T04:11:00.402Z,7.35
2023-04-11T04:12:00.432Z,7.35
2023-04-11T04:13:00.509Z,7.35
2023-04-11T04:14:00.442Z,7.35
2023-04-11T04:15:00.467Z,7.33
2023-04-11T04:16:02.622Z,7.33
2023-04-11T04:17:00.444Z,7.33
2023-04-11T04:18:00.498Z,7.33
2023-04-11T04:19:00.420Z,7.33
2023-04-11T04:20:00.530Z,7.29
2023-04-11T04:21:00.396Z,7.29
2023-04-11T04:22:00.402Z,7.29
2023-04-11T04:23:00.420Z,7.29
2023-04-11T04:24:00.402Z,7.29
2023-04-11T04:25:00.714Z,7.28
2023-04-11T04:26:00.713Z,7.28
2023-04-11T04:27:00.412Z,7.28
2023-04-11T04:28:00.399Z,7.28
2023-04-11T04:29:00.411Z,7.28
2023-04-11T04:30:04.298Z,7.25
2023-04-11T04:31:00.388Z,7.25
2023-04-11T04:32:00.477Z,7.25
2023-04-11T04:33:00.464Z,7.25
2023-04-11T04:34:03.512Z,7.25
2023-04-11T04:35:00.411Z,7.26
2023-04-11T04:36:00.545Z,7.26
2023-04-11T04:37:00.405Z,7.26
2023-04-11T04:38:00.400Z,7.26
2023-04-11T04:39:00.404Z,7.26
2023-04-11T04:40:00.407Z,7.21
2023-04-11T04:41:00.409Z,7.21
2023-04-11T04:42:00.419Z,7.21
2023-04-11T04:43:00.397Z,7.21
2023-04-11T04:44:00.453Z,7.21
2023-04-11T04:45:00.706Z,7.20
2023-04-11T04:46:00.469Z,7.20
2023-04-11T04:47:00.414Z,7.20
2023-04-11T04:48:00.438Z,7.20
2023-04-11T04:49:02.183Z,7.20
2023-04-11T04:50:00.790Z,7.18
2023-04-11T04:51:00.411Z,7.18
2023-04-11T04:52:00.434Z,7.18
2023-04-11T04:53:00.402Z,7.18
2023-04-11T04:54:00.510Z,7.18
2023-04-11T04:55:00.690Z,7.18
2023-04-11T04:56:00.531Z,7.18
2023-04-11T04:57:00.403Z,7.18
2023-04-11T04:58:00.431Z,7.18
2023-04-11T04:59:00.511Z,7.18
2023-04-11T05:00:00.474Z,7.16
2023-04-11T05:01:00.454Z,7.16
2023-04-11T05:02:00.463Z,7.16
2023-04-11T05:03:00.659Z,7.16
2023-04-11T05:04:01.223Z,7.16
2023-04-11T05:05:00.403Z,7.07
2023-04-11T05:06:00.398Z,7.07
2023-04-11T05:07:00.396Z,7.07
2023-04-11T05:08:00.503Z,7.07
2023-04-11T05:09:00.926Z,7.07
2023-04-11T05:10:00.393Z,7.05
2023-04-11T05:11:00.420Z,7.05
2023-04-11T05:12:00.417Z,7.05
2023-04-11T05:13:00.459Z,7.05
2023-04-11T05:14:00.444Z,7.05
2023-04-11T05:15:00.386Z,7.00
2023-04-11T05:16:00.405Z,7.00
2023-04-11T05:17:00.517Z,7.00
2023-04-11T05:18:00.481Z,7.00
2023-04-11T05:19:00.414Z,7.00
2023-04-11T05:20:00.460Z,6.97
2023-04-11T05:21:00.480Z,6.97
2023-04-11T05:22:00.423Z,6.97
2023-04-11T05:23:00.403Z,6.97
2023-04-11T05:24:00.435Z,6.97
2023-04-11T05:25:00.422Z,6.99
2023-04-11T05:26:00.724Z,6.99
2023-04-11T05:27:00.435Z,6.99
2023-04-11T05:28:00.436Z,6.99
2023-04-11T05:29:00.471Z,6.99
2023-04-11T05:30:00.407Z,6.96
2023-04-11T05:31:00.762Z,6.96
2023-04-11T05:32:00.411Z,6.96
2023-04-11T05:33:00.409Z,6.96
2023-04-11T05:34:01.243Z,6.96
2023-04-11T05:35:00.395Z,6.96
2023-04-11T05:36:00.466Z,6.96
2023-04-11T05:37:00.394Z,6.96
2023-04-11T05:38:00.407Z,6.96
2023-04-11T05:39:00.438Z,6.96
2023-04-11T05:40:00.537Z,6.95
2023-04-11T05:41:00.432Z,6.95
2023-04-11T05:42:00.408Z,6.95
2023-04-11T05:43:00.443Z,6.95
2023-04-11T05:44:00.415Z,6.95
2023-04-11T05:45:00.618Z,6.93
2023-04-11T05:46:00.473Z,6.93
2023-04-11T05:47:00.402Z,6.93
2023-04-11T05:48:00.448Z,6.93
2023-04-11T05:49:00.465Z,6.93
2023-04-11T05:50:00.427Z,7.02
2023-04-11T05:51:00.469Z,7.02
2023-04-11T05:52:00.394Z,7.02
2023-04-11T05:53:00.477Z,7.02
2023-04-11T05:54:00.418Z,7.02
2023-04-11T05:55:00.515Z,7.07
2023-04-11T05:56:00.415Z,7.07
2023-04-11T05:57:00.757Z,7.07
2023-04-11T05:58:00.401Z,7.07
2023-04-11T05:59:00.397Z,7.07
2023-04-11T06:00:00.475Z,7.17
2023-04-11T06:01:00.445Z,7.17
2023-04-11T06:02:00.645Z,7.17
2023-04-11T06:03:00.728Z,7.17
2023-04-11T06:04:00.794Z,7.17
2023-04-11T06:05:00.462Z,7.25
2023-04-11T06:06:00.415Z,7.25
2023-04-11T06:07:00.616Z,7.25
2023-04-11T06:08:01.421Z,7.25
2023-04-11T06:09:00.401Z,7.25
2023-04-11T06:10:00.434Z,7.31
2023-04-11T06:11:00.416Z,7.31
2023-04-11T06:12:00.408Z,7.31
2023-04-11T06:13:00.744Z,7.31
2023-04-11T06:14:00.483Z,7.31
2023-04-11T06:15:00.727Z,7.41
2023-04-11T06:16:00.718Z,7.41
2023-04-11T06:17:00.414Z,7.41
2023-04-11T06:18:00.436Z,7.41
2023-04-11T06:19:00.404Z,7.41
2023-04-11T06:20:00.404Z,7.64
2023-04-11T06:21:00.448Z,7.64
2023-04-11T06:22:00.411Z,7.64
2023-04-11T06:23:00.430Z,7.64
2023-04-11T06:24:03.500Z,7.64
2023-04-11T06:25:00.463Z,8.18
2023-04-11T06:26:00.412Z,8.18
2023-04-11T06:27:00.425Z,8.18
2023-04-11T06:28:00.425Z,8.18
2023-04-11T06:29:03.028Z,8.18
2023-04-11T06:30:00.404Z,8.36
2023-04-11T06:31:00.439Z,8.36
2023-04-11T06:32:00.703Z,8.36
2023-04-11T06:33:00.559Z,8.36
2023-04-11T06:34:00.755Z,8.36
2023-04-11T06:35:00.458Z,8.45
2023-04-11T06:36:00.456Z,8.45
2023-04-11T06:37:00.396Z,8.45
2023-04-11T06:38:00.430Z,8.45
2023-04-11T06:39:00.446Z,8.45
2023-04-11T06:40:00.479Z,8.39
2023-04-11T06:41:00.413Z,8.39
2023-04-11T06:42:01.037Z,8.39
2023-04-11T06:43:00.447Z,8.39
2023-04-11T06:44:00.518Z,8.39
2023-04-11T06:45:00.434Z,8.34
2023-04-11T06:46:00.407Z,8.34
2023-04-11T06:47:00.427Z,8.34
2023-04-11T06:48:00.472Z,8.34
2023-04-11T06:49:00.421Z,8.34
2023-04-11T06:50:00.470Z,8.39
2023-04-11T06:51:00.420Z,8.39
2023-04-11T06:52:00.402Z,8.39
2023-04-11T06:53:00.406Z,8.39
2023-04-11T06:54:00.775Z,8.39
2023-04-11T06:55:00.418Z,8.45
2023-04-11T06:56:00.420Z,8.45
2023-04-11T06:57:00.784Z,8.45
2023-04-11T06:58:00.398Z,8.45
2023-04-11T06:59:00.424Z,8.45
2023-04-11T07:00:00.423Z,8.49
2023-04-11T07:01:00.439Z,8.49
2023-04-11T07:02:00.513Z,8.49
2023-04-11T07:03:00.723Z,8.49
2023-04-11T07:04:01.221Z,8.49
2023-04-11T07:05:00.788Z,8.47
2023-04-11T07:06:00.398Z,8.47
2023-04-11T07:07:00.395Z,8.47
2023-04-11T07:08:00.453Z,8.47
2023-04-11T07:09:00.939Z,8.47
2023-04-11T07:10:00.409Z,8.53
2023-04-11T07:11:00.426Z,8.53
2023-04-11T07:12:00.426Z,8.53
2023-04-11T07:13:00.411Z,8.53
2023-04-11T07:14:01.098Z,8.53
2023-04-11T07:15:01.563Z,8.71
2023-04-11T07:16:00.502Z,8.71
2023-04-11T07:17:00.400Z,8.71
2023-04-11T07:18:00.601Z,8.71
2023-04-11T07:19:00.450Z,8.71
2023-04-11T07:20:00.401Z,8.81
2023-04-11T07:21:00.418Z,8.81
2023-04-11T07:22:00.489Z,8.81
2023-04-11T07:23:00.453Z,8.81
2023-04-11T07:24:00.484Z,8.81
2023-04-11T07:25:00.415Z,8.86
2023-04-11T07:26:00.415Z,8.86
2023-04-11T07:27:00.419Z,8.86
2023-04-11T07:28:00.416Z,8.86
2023-04-11T07:29:00.413Z,8.86
2023-04-11T07:30:00.714Z,8.97
2023-04-11T07:31:00.396Z,8.97
2023-04-11T07:32:00.542Z,8.97
2023-04-11T07:33:00.561Z,8.97
2023-04-11T07:34:00.459Z,8.97
2023-04-11T07:35:00.419Z,9.10
2023-04-11T07:36:00.498Z,9.10
2023-04-11T07:37:00.413Z,9.10
2023-04-11T07:38:00.498Z,9.10
2023-04-11T07:39:00.697Z,9.10
2023-04-11T07:40:00.464Z,8.99
2023-04-11T07:41:01.572Z,8.99
2023-04-11T07:42:00.413Z,8.99
2023-04-11T07:43:00.432Z,8.99
2023-04-11T07:44:00.446Z,8.99
2023-04-11T07:45:00.412Z,9.28
2023-04-11T07:46:00.453Z,9.28
2023-04-11T07:47:00.401Z,9.28
2023-04-11T07:48:00.483Z,9.28
2023-04-11T07:49:00.402Z,9.28
2023-04-11T07:50:00.504Z,9.35
2023-04-11T07:51:00.630Z,9.35
2023-04-11T07:52:00.438Z,9.35
2023-04-11T07:53:00.388Z,9.35
2023-04-11T07:54:00.408Z,9.35
2023-04-11T07:55:00.425Z,9.31
2023-04-11T07:56:00.423Z,9.31
2023-04-11T07:57:00.386Z,9.31
2023-04-11T07:58:00.398Z,9.31
2023-04-11T07:59:00.394Z,9.31
2023-04-11T08:00:00.661Z,9.58
2023-04-11T08:01:00.446Z,9.58
2023-04-11T08:02:00.712Z,9.58
2023-04-11T08:03:08.725Z,9.58
2023-04-11T08:04:00.957Z,9.58
2023-04-11T08:05:00.553Z,9.57
2023-04-11T08:06:00.389Z,9.57
2023-04-11T08:07:00.410Z,9.57
2023-04-11T08:08:01.171Z,9.57
2023-04-11T08:09:00.429Z,9.57
2023-04-11T08:10:00.393Z,9.74
2023-04-11T08:11:00.407Z,9.74
2023-04-11T08:12:00.409Z,9.74
2023-04-11T08:13:00.446Z,9.74
2023-04-11T08:14:00.481Z,9.74
2023-04-11T08:15:00.421Z,9.84
2023-04-11T08:16:01.841Z,9.84
2023-04-11T08:17:00.495Z,9.84
2023-04-11T08:18:00.428Z,9.84
2023-04-11T08:19:00.426Z,9.84
2023-04-11T08:20:02.177Z,9.98
2023-04-11T08:21:00.713Z,9.98
2023-04-11T08:22:00.619Z,9.98
2023-04-11T08:23:00.431Z,9.98
2023-04-11T08:24:00.405Z,9.98
2023-04-11T08:25:00.473Z,10.01
2023-04-11T08:26:00.394Z,10.01
2023-04-11T08:27:00.403Z,10.01
2023-04-11T08:28:00.470Z,10.01
2023-04-11T08:29:00.407Z,10.01
2023-04-11T08:30:00.520Z,10.22
2023-04-11T08:31:00.465Z,10.22
2023-04-11T08:32:00.410Z,10.22
2023-04-11T08:33:00.464Z,10.22
2023-04-11T08:34:01.378Z,10.22
2023-04-11T08:35:00.436Z,10.29
2023-04-11T08:36:00.756Z,10.29
2023-04-11T08:37:00.409Z,10.29
2023-04-11T08:38:00.407Z,10.29
2023-04-11T08:39:00.394Z,10.29
2023-04-11T08:40:00.417Z,10.34
2023-04-11T08:41:00.401Z,10.34
2023-04-11T08:42:00.399Z,10.34
2023-04-11T08:43:00.434Z,10.34
2023-04-11T08:44:00.436Z,10.34
2023-04-11T08:45:01.697Z,10.40
2023-04-11T08:46:00.939Z,10.40
2023-04-11T08:47:00.470Z,10.40
2023-04-11T08:48:00.476Z,10.40
2023-04-11T08:49:00.406Z,10.40
2023-04-11T08:50:00.405Z,10.51
2023-04-11T08:51:01.102Z,10.51
2023-04-11T08:52:00.770Z,10.51
2023-04-11T08:53:01.066Z,10.51
2023-04-11T08:54:03.573Z,10.51
2023-04-11T08:55:00.424Z,10.59
2023-04-11T08:56:00.445Z,10.59
2023-04-11T08:57:00.414Z,10.59
2023-04-11T08:58:00.407Z,10.59
2023-04-11T08:59:00.829Z,10.59
2023-04-11T09:00:01.842Z,10.68
2023-04-11T09:01:10.351Z,10.68
2023-04-11T09:02:08.467Z,10.68
2023-04-11T09:03:01.525Z,10.68
2023-04-11T09:04:01.188Z,10.68
2023-04-11T09:05:00.573Z,10.61
2023-04-11T09:06:07.937Z,10.61
2023-04-11T09:07:01.295Z,10.61
2023-04-11T09:08:01.386Z,10.61
2023-04-11T09:09:01.706Z,10.61
2023-04-11T09:10:10.321Z,10.74
2023-04-11T09:11:00.420Z,10.74
2023-04-11T09:12:00.394Z,10.74
2023-04-11T09:13:00.701Z,10.74
2023-04-11T09:14:08.816Z,10.74
2023-04-11T09:15:10.307Z,10.78
2023-04-11T09:16:06.274Z,10.78
2023-04-11T09:17:01.677Z,10.78
2023-04-11T09:18:01.254Z,10.78
2023-04-11T09:19:00.468Z,10.78
2023-04-11T09:20:10.323Z,11.00
2023-04-11T09:21:01.454Z,11.00
2023-04-11T09:22:01.233Z,11.00
2023-04-11T09:23:00.419Z,11.00
2023-04-11T09:24:10.329Z,11.00
2023-04-11T09:25:01.082Z,11.11
2023-04-11T09:26:00.416Z,11.11
2023-04-11T09:27:10.348Z,11.11
2023-04-11T09:28:08.647Z,11.11
2023-04-11T09:29:00.403Z,11.11
2023-04-11T09:30:00.892Z,11.20
2023-04-11T09:31:00.452Z,11.20
2023-04-11T09:32:00.398Z,11.20
2023-04-11T09:33:10.330Z,11.20
2023-04-11T09:34:00.635Z,11.20
2023-04-11T09:35:10.325Z,11.32
2023-04-11T09:36:00.430Z,11.32
2023-04-11T09:37:00.423Z,11.32
2023-04-11T09:38:00.431Z,11.32
2023-04-11T09:39:10.337Z,11.32
2023-04-11T09:40:00.435Z,11.48
2023-04-11T09:41:01.150Z,11.48
2023-04-11T09:42:00.399Z,11.48
2023-04-11T09:43:01.325Z,11.48
2023-04-11T09:44:00.970Z,11.48
2023-04-11T09:45:00.769Z,11.60
2023-04-11T09:46:08.378Z,11.60
2023-04-11T09:47:00.522Z,11.60
2023-04-11T09:48:00.490Z,11.60
2023-04-11T09:49:00.436Z,11.60
2023-04-11T09:50:00.905Z,11.76
2023-04-11T09:51:02.800Z,11.76
2023-04-11T09:52:00.705Z,11.76
2023-04-11T09:53:00.753Z,11.76
2023-04-11T09:54:01.129Z,11.76
2023-04-11T09:55:02.053Z,11.84
2023-04-11T09:56:00.616Z,11.84
2023-04-11T09:57:01.894Z,11.84
2023-04-11T09:58:00.982Z,11.84
2023-04-11T09:59:01.378Z,11.84
2023-04-11T10:00:01.212Z,11.82
2023-04-11T10:01:00.463Z,11.82
2023-04-11T10:02:00.563Z,11.82
2023-04-11T10:03:00.528Z,11.82
2023-04-11T10:04:00.714Z,11.82
2023-04-11T10:05:00.505Z,11.92
2023-04-11T10:06:02.625Z,11.92
2023-04-11T10:07:01.410Z,11.92
2023-04-11T10:08:03.762Z,11.92
2023-04-11T10:09:08.670Z,11.92
2023-04-11T10:10:00.744Z,12.04
2023-04-11T10:11:01.524Z,12.04
2023-04-11T10:12:01.409Z,12.04
2023-04-11T10:13:00.407Z,12.04
2023-04-11T10:14:00.424Z,12.04
2023-04-11T10:15:05.014Z,11.99
2023-04-11T10:16:05.648Z,11.99
2023-04-11T10:17:10.329Z,11.99
2023-04-11T10:18:10.387Z,11.99
2023-04-11T10:19:00.421Z,11.99
2023-04-11T10:20:00.399Z,12.29
2023-04-11T10:21:00.494Z,12.29
2023-04-11T10:22:00.412Z,12.29
2023-04-11T10:23:00.754Z,12.29
2023-04-11T10:24:10.328Z,12.29
2023-04-11T10:25:10.328Z,12.38
2023-04-11T10:26:00.427Z,12.38
2023-04-11T10:27:01.610Z,12.38
2023-04-11T10:28:00.396Z,12.38
2023-04-11T10:29:00.398Z,12.38
2023-04-11T10:30:00.424Z,12.41
2023-04-11T10:31:01.333Z,12.41
2023-04-11T10:32:10.341Z,12.41
2023-04-11T10:33:10.309Z,12.41
2023-04-11T10:34:10.330Z,12.41
2023-04-11T10:35:00.420Z,12.45
2023-04-11T10:36:01.998Z,12.45
2023-04-11T10:37:01.677Z,12.45
2023-04-11T10:38:00.418Z,12.45
2023-04-11T10:39:00.434Z,12.45
2023-04-11T10:40:03.255Z,12.55
2023-04-11T10:41:10.316Z,12.55
2023-04-11T10:42:10.338Z,12.55
2023-04-11T10:43:10.354Z,12.55
2023-04-11T10:44:10.345Z,12.55
2023-04-11T10:45:10.401Z,12.49
2023-04-11T10:46:10.324Z,12.49
2023-04-11T10:47:00.473Z,12.49
2023-04-11T10:48:00.404Z,12.49
2023-04-11T10:49:01.950Z,12.49
2023-04-11T10:50:00.622Z,12.76
2023-04-11T10:51:10.315Z,12.76
2023-04-11T10:52:10.329Z,12.76
2023-04-11T10:53:01.360Z,12.76
2023-04-11T10:54:00.960Z,12.76
2023-04-11T10:55:10.420Z,12.82
2023-04-11T10:56:00.416Z,12.82
2023-04-11T10:57:00.437Z,12.82
2023-04-11T10:58:04.940Z,12.82
2023-04-11T10:59:00.399Z,12.82
2023-04-11T11:01:13.298Z,12.87
2023-04-11T11:02:01.447Z,12.87
2023-04-11T11:03:00.802Z,12.87
2023-04-11T11:04:00.628Z,12.87
2023-04-11T11:05:00.735Z,12.99
2023-04-11T11:06:01.721Z,12.99
2023-04-11T11:07:01.008Z,12.99
2023-04-11T11:08:00.407Z,12.99
2023-04-11T11:09:10.309Z,12.99
2023-04-11T11:10:00.509Z,13.11
2023-04-11T11:11:01.163Z,13.11
2023-04-11T11:12:08.671Z,13.11
2023-04-11T11:13:00.420Z,13.11
2023-04-11T11:14:00.387Z,13.11
2023-04-11T11:15:10.341Z,13.01
2023-04-11T11:16:00.454Z,13.01
2023-04-11T11:17:00.792Z,13.01
2023-04-11T11:18:00.441Z,13.01
2023-04-11T11:19:00.429Z,13.01
2023-04-11T11:20:00.656Z,13.04
2023-04-11T11:21:00.616Z,13.04
2023-04-11T11:22:00.723Z,13.04
2023-04-11T11:23:01.536Z,13.04
2023-04-11T11:24:01.306Z,13.04
2023-04-11T11:25:07.906Z,12.92
2023-04-11T11:26:00.616Z,12.92
2023-04-11T11:27:00.403Z,12.92
2023-04-11T11:28:01.255Z,12.92
2023-04-11T11:29:00.413Z,12.92
2023-04-11T11:30:10.353Z,12.92
2023-04-11T11:31:00.393Z,12.92
2023-04-11T11:32:01.207Z,12.92
2023-04-11T11:33:10.360Z,12.92
2023-04-11T11:34:21.254Z,12.92
2023-04-11T11:35:10.331Z,13.02
2023-04-11T11:36:02.788Z,13.02
2023-04-11T11:37:01.246Z,13.02
2023-04-11T11:38:00.413Z,13.02
2023-04-11T11:39:00.482Z,13.02
2023-04-11T11:40:00.496Z,13.39
2023-04-11T11:41:00.798Z,13.39
2023-04-11T11:42:00.660Z,13.39
2023-04-11T11:43:00.412Z,13.39
2023-04-11T11:44:01.217Z,13.39
2023-04-11T11:45:10.307Z,13.66
2023-04-11T11:46:07.180Z,13.66
2023-04-11T11:47:01.324Z,13.66
2023-04-11T11:48:00.438Z,13.66
2023-04-11T11:49:01.942Z,13.66
2023-04-11T11:50:00.532Z,13.66
2023-04-11T11:51:00.428Z,13.86
2023-04-11T11:52:00.402Z,13.86
2023-04-11T11:53:10.314Z,13.86
2023-04-11T11:54:02.191Z,13.86
2023-04-11T11:55:01.164Z,13.78
2023-04-11T11:56:10.315Z,13.78
2023-04-11T11:57:00.486Z,13.78
2023-04-11T11:58:00.703Z,13.78
2023-04-11T11:59:00.499Z,13.78
2023-04-11T12:00:01.165Z,13.66
2023-04-11T12:01:00.425Z,13.66
2023-04-11T12:02:01.346Z,13.66
2023-04-11T12:03:01.242Z,13.66
2023-04-11T12:04:01.259Z,13.66
2023-04-11T12:05:01.615Z,13.86
2023-04-11T12:06:00.399Z,13.86
2023-04-11T12:07:08.362Z,13.86
2023-04-11T12:08:01.614Z,13.86
2023-04-11T12:09:01.440Z,13.86
2023-04-11T12:10:00.877Z,13.86
2023-04-11T12:11:00.406Z,13.86
2023-04-11T12:12:00.444Z,13.86
2023-04-11T12:13:00.418Z,13.86
2023-04-11T12:14:00.422Z,13.86
2023-04-11T12:15:00.806Z,14.02
2023-04-11T12:16:00.517Z,14.02
2023-04-11T12:17:00.423Z,14.02
2023-04-11T12:18:00.444Z,14.02
2023-04-11T12:19:02.697Z,14.02
2023-04-11T12:20:01.243Z,14.04
2023-04-11T12:21:00.484Z,14.04
2023-04-11T12:22:00.410Z,14.04
2023-04-11T12:23:00.395Z,14.04
2023-04-11T12:24:00.419Z,14.04
2023-04-11T12:25:06.650Z,14.01
2023-04-11T12:26:00.413Z,14.01
2023-04-11T12:27:06.930Z,14.01
2023-04-11T12:28:00.402Z,14.01
2023-04-11T12:29:00.409Z,14.01
2023-04-11T12:30:00.402Z,14.01
2023-04-11T12:31:00.439Z,14.13
2023-04-11T12:32:00.453Z,14.13
2023-04-11T12:33:00.429Z,14.13
2023-04-11T12:34:00.425Z,14.13
2023-04-11T12:35:01.208Z,13.88
2023-04-11T12:36:00.443Z,13.88
2023-04-11T12:37:00.414Z,13.88
2023-04-11T12:38:00.419Z,13.88
2023-04-11T12:39:00.410Z,13.88
2023-04-11T12:40:00.824Z,13.80
2023-04-11T12:41:26.220Z,13.80
2023-04-11T12:42:00.387Z,13.80
2023-04-11T12:43:00.449Z,13.80
2023-04-11T12:44:00.398Z,13.80
2023-04-11T12:45:00.393Z,13.80
2023-04-11T12:46:00.409Z,13.85
2023-04-11T12:47:00.481Z,13.85
2023-04-11T12:48:00.452Z,13.85
2023-04-11T12:49:00.404Z,13.85
2023-04-11T12:50:00.788Z,13.97
2023-04-11T12:51:00.412Z,13.97
2023-04-11T12:52:00.394Z,13.97
2023-04-11T12:53:00.390Z,13.97
2023-04-11T12:54:00.437Z,13.97
2023-04-11T12:55:00.490Z,13.97
2023-04-11T12:56:00.440Z,14.11
2023-04-11T12:57:00.882Z,14.11
2023-04-11T12:58:00.436Z,14.11
2023-04-11T12:59:00.395Z,14.11
2023-04-11T13:00:00.514Z,14.11
2023-04-11T13:01:00.419Z,14.26
2023-04-11T13:02:00.509Z,14.26
2023-04-11T13:03:00.542Z,14.26
2023-04-11T13:04:00.715Z,14.26
2023-04-11T13:05:00.559Z,14.26
2023-04-11T13:06:00.388Z,14.26
2023-04-11T13:07:00.475Z,14.26
2023-04-11T13:08:00.454Z,14.26
2023-04-11T13:09:00.394Z,14.26